Time;durP1;ratioP1;P1;durP2;ratioP2;P2;SDS_P1;SDS_P2;PMS_P1;PMS_P2;Temp;Humidity;BMP_temperature;BMP_pressure;BME280_temperature;BME280_humidity;BME280_pressure;Samples;Min_cycle;Max_cycle;Signal;HPM_P1;HPM_P2
2023/05/20 00:01:06;;;;;;;10.50;7.10;;;;;;;27.31;38.90;100879.70;108215;1254;70663;-66
2023/05/20 00:03:32;;;;;;;8.90;6.70;;;;;;;27.26;38.92;100878.55;108090;1257;73509;-67
2023/05/20 00:06:00;;;;;;;10.30;6.90;;;;;;;27.76;38.16;100880.34;108075;1254;62872;-68
2023/05/20 00:08:26;;;;;;;12.90;6.70;;;;;;;27.74;38.19;100875.81;108100;1254;60324;-67
2023/05/20 00:10:53;;;;;;;10.50;6.40;;;;;;;27.75;38.00;100875.36;108200;1254;75879;-66
2023/05/20 00:13:20;;;;;;;8.30;6.30;;;;;;;27.65;38.16;100870.59;108172;1253;72255;-66
2023/05/20 00:15:47;;;;;;;11.50;7.10;;;;;;;27.78;38.05;100865.73;108091;1254;74869;-67
2023/05/20 00:18:14;;;;;;;12.90;6.90;;;;;;;27.87;37.80;100866.70;107991;1254;64213;-67
2023/05/20 00:20:40;;;;;;;9.50;6.40;;;;;;;28.05;37.46;100865.06;108156;1254;60886;-67
2023/05/20 00:23:07;;;;;;;13.60;7.30;;;;;;;28.19;37.25;100863.15;108222;1254;75532;-66
2023/05/20 00:25:34;;;;;;;10.20;6.60;;;;;;;28.36;36.75;100861.39;107930;1254;72324;-66
2023/05/20 00:28:01;;;;;;;12.10;7.40;;;;;;;28.16;37.13;100862.41;108173;1259;72436;-66
2023/05/20 00:30:28;;;;;;;9.40;7.50;;;;;;;28.16;37.22;100864.10;107853;1259;62928;-67
2023/05/20 00:32:55;;;;;;;10.30;7.30;;;;;;;28.13;37.26;100859.83;108027;1254;60489;-65
2023/05/20 00:35:23;;;;;;;9.70;7.00;;;;;;;28.03;37.27;100860.04;108007;1257;73779;-66
2023/05/20 00:37:49;;;;;;;9.60;7.10;;;;;;;28.10;37.03;100853.91;108041;1254;70383;-67
2023/05/20 00:40:17;;;;;;;12.80;7.30;;;;;;;27.79;37.70;100858.73;107995;1254;74738;-67
2023/05/20 00:42:43;;;;;;;10.40;7.30;;;;;;;27.91;37.56;100859.00;108082;1254;63840;-67
2023/05/20 00:45:10;;;;;;;8.00;6.60;;;;;;;27.37;38.46;100864.89;107962;1254;61397;-67
2023/05/20 00:47:38;;;;;;;10.60;7.10;;;;;;;27.66;37.83;100864.61;108055;1257;73603;-67
2023/05/20 00:50:07;;;;;;;14.00;7.90;;;;;;;27.56;37.85;100863.39;108107;1254;72659;-66
2023/05/20 00:52:34;;;;;;;11.80;7.40;;;;;;;27.58;37.97;100865.15;108017;1259;74597;-65
2023/05/20 00:55:01;;;;;;;9.80;6.60;;;;;;;27.85;37.55;100863.27;107973;1254;61406;-65
2023/05/20 00:57:27;;;;;;;11.70;6.50;;;;;;;27.75;37.58;100867.71;108080;1254;62492;-65
2023/05/20 00:59:54;;;;;;;10.10;6.40;;;;;;;27.63;37.79;100866.34;107883;1254;76053;-67
2023/05/20 01:02:22;;;;;;;8.20;6.60;;;;;;;27.77;37.53;100866.20;107935;1254;72447;-67
2023/05/20 01:04:49;;;;;;;9.60;6.60;;;;;;;27.72;37.61;100871.42;107924;1254;73705;-67
2023/05/20 01:07:17;;;;;;;13.40;7.30;;;;;;;27.38;38.04;100871.22;108136;1256;64275;-66
2023/05/20 01:09:44;;;;;;;8.70;6.30;;;;;;;27.36;38.12;100866.70;108029;1254;62517;-66
2023/05/20 01:12:28;;;;;;;9.20;6.20;;;;;;;27.46;37.95;100865.25;108017;1254;76349;-68
2023/05/20 01:15:01;;;;;;;11.00;6.80;;;;;;;27.38;37.81;100864.20;108059;1254;69854;-67
2023/05/20 01:17:29;;;;;;;10.30;6.40;;;;;;;26.82;38.72;100860.69;107962;1254;73033;-65
2023/05/20 01:19:57;;;;;;;10.80;5.90;;;;;;;26.73;38.95;100858.98;107986;1254;61957;-68
2023/05/20 01:22:25;;;;;;;9.30;6.10;;;;;;;26.82;38.68;100857.47;108021;1254;62566;-67
2023/05/20 01:24:52;;;;;;;8.90;5.90;;;;;;;27.00;38.41;100856.65;107717;1254;74686;-66
2023/05/20 01:27:21;;;;;;;11.40;6.90;;;;;;;27.23;37.81;100853.02;108016;1257;72536;-66
2023/05/20 01:29:51;;;;;;;8.10;5.90;;;;;;;27.56;37.37;100855.09;108135;1254;72271;-67
2023/05/20 01:32:31;;;;;;;12.30;6.30;;;;;;;27.52;37.23;100853.67;107936;1254;63041;-67
2023/05/20 01:34:59;;;;;;;11.40;6.80;;;;;;;27.31;37.43;100856.92;108013;1254;62205;-66
2023/05/20 01:37:26;;;;;;;8.90;6.20;;;;;;;27.18;37.51;100857.23;107929;1254;75878;-66
2023/05/20 01:39:53;;;;;;;12.70;6.10;;;;;;;27.27;37.33;100857.56;107885;1254;72216;-67
2023/05/20 01:42:20;;;;;;;9.90;6.30;;;;;;;27.08;37.53;100860.95;107866;1254;75210;-66
2023/05/20 01:44:47;;;;;;;8.10;5.80;;;;;;;27.12;37.45;100860.16;108046;1254;62967;-66
2023/05/20 01:47:14;;;;;;;10.80;6.00;;;;;;;27.10;37.35;100863.77;108131;1254;61267;-67
2023/05/20 01:49:40;;;;;;;13.10;6.40;;;;;;;26.92;37.52;100864.05;108118;1254;76220;-65
2023/05/20 01:52:07;;;;;;;6.20;5.10;;;;;;;26.82;37.68;100869.87;108026;1254;70592;-67
2023/05/20 01:54:35;;;;;;;12.70;5.60;;;;;;;26.78;37.76;100870.27;107995;1256;74690;-67
2023/05/20 01:57:02;;;;;;;8.60;5.70;;;;;;;26.86;37.59;100873.48;107998;1254;63651;-67
2023/05/20 01:59:28;;;;;;;12.00;5.90;;;;;;;26.87;37.42;100870.97;107976;1254;61804;-66
2023/05/20 02:01:55;;;;;;;6.80;5.60;;;;;;;26.89;37.41;100869.02;107816;1254;73761;-67
2023/05/20 02:04:22;;;;;;;9.50;6.00;;;;;;;26.71;37.55;100870.95;107954;1254;70306;-66
2023/05/20 02:06:49;;;;;;;10.50;6.10;;;;;;;26.38;38.06;100873.25;107932;1259;74684;-66
2023/05/20 02:09:17;;;;;;;16.20;5.70;;;;;;;26.99;37.17;100868.08;107961;1254;64169;-67
2023/05/20 02:11:45;;;;;;;8.70;5.60;;;;;;;26.87;37.20;100869.70;108088;1254;62685;-67
2023/05/20 02:14:12;;;;;;;8.20;5.80;;;;;;;26.70;37.47;100872.56;108008;1254;75793;-67
2023/05/20 02:16:39;;;;;;;7.80;5.90;;;;;;;27.14;36.71;100871.52;108008;1254;72349;-66
2023/05/20 02:19:11;;;;;;;9.40;5.80;;;;;;;27.04;36.81;100871.03;108030;1257;72997;-67
2023/05/20 02:21:40;;;;;;;6.70;5.20;;;;;;;26.78;37.29;100873.30;108151;1253;63462;-67
2023/05/20 02:24:08;;;;;;;12.00;5.60;;;;;;;26.80;37.26;100872.73;108082;1251;60345;-67
2023/05/20 02:26:35;;;;;;;7.60;5.90;;;;;;;26.65;37.46;100872.92;108076;1252;72309;-66
2023/05/20 02:29:02;;;;;;;9.50;5.80;;;;;;;26.72;37.32;100874.01;107943;1253;72716;-67
2023/05/20 02:31:29;;;;;;;7.90;5.50;;;;;;;26.71;37.40;100880.27;108093;1253;74004;-67
2023/05/20 02:33:56;;;;;;;16.40;5.70;;;;;;;26.94;36.97;100876.35;108110;1252;64423;-66
2023/05/20 02:36:23;;;;;;;7.30;5.20;;;;;;;26.89;37.01;100876.41;108139;1253;62219;-67
2023/05/20 02:38:53;;;;;;;9.70;6.10;;;;;;;27.08;36.61;100873.18;108081;1253;76679;-68
2023/05/20 02:41:20;;;;;;;10.10;5.40;;;;;;;27.25;36.36;100870.63;108084;1253;72295;-68
2023/05/20 02:43:47;;;;;;;9.30;5.90;;;;;;;27.16;36.33;100873.51;108045;1253;74975;-66
2023/05/20 02:46:14;;;;;;;10.70;5.60;;;;;;;26.91;36.69;100884.66;108107;1251;62022;-67
2023/05/20 02:48:41;;;;;;;7.30;5.40;;;;;;;26.85;36.98;100883.98;108300;1251;60447;-66
2023/05/20 02:51:08;;;;;;;9.50;5.80;;;;;;;26.87;36.86;100882.22;108172;1251;73616;-66
2023/05/20 02:53:35;;;;;;;12.10;5.60;;;;;;;27.00;36.51;100882.23;108144;1251;71013;-66
2023/05/20 02:56:03;;;;;;;7.90;5.80;;;;;;;27.10;36.27;100884.02;108221;1251;71487;-67
2023/05/20 02:58:30;;;;;;;14.80;5.40;;;;;;;27.25;36.19;100884.02;108304;1251;63797;-66
2023/05/20 03:00:57;;;;;;;13.70;6.00;;;;;;;27.45;35.87;100882.33;108289;1251;60851;-66
2023/05/20 03:03:25;;;;;;;11.10;5.90;;;;;;;27.52;35.71;100884.55;108244;1251;75444;-66
2023/05/20 03:05:53;;;;;;;9.80;5.80;;;;;;;27.54;35.69;100890.08;108221;1257;71180;-67
2023/05/20 03:08:20;;;;;;;8.30;6.00;;;;;;;27.56;35.71;100887.16;108246;1254;74801;-67
2023/05/20 03:10:49;;;;;;;10.30;6.30;;;;;;;27.54;35.70;100893.51;108310;1251;61924;-68
2023/05/20 03:13:16;;;;;;;8.70;6.20;;;;;;;27.53;35.60;100897.41;108138;1251;61033;-67
2023/05/20 03:15:44;;;;;;;11.40;6.80;;;;;;;27.33;35.86;100899.30;108180;1250;76190;-68
2023/05/20 03:18:12;;;;;;;10.40;6.80;;;;;;;27.00;36.44;100900.05;108368;1251;71372;-67
2023/05/20 03:20:40;;;;;;;12.20;6.80;;;;;;;27.24;36.21;100900.70;108263;1251;74791;-67
2023/05/20 03:23:07;;;;;;;10.80;6.90;;;;;;;27.25;36.10;100903.48;108204;1251;63739;-66
2023/05/20 03:25:36;;;;;;;11.30;6.50;;;;;;;27.23;36.03;100903.49;108101;1253;62009;-67
2023/05/20 03:28:03;;;;;;;13.00;6.60;;;;;;;27.43;35.65;100905.22;108191;1253;75947;-66
2023/05/20 03:30:30;;;;;;;8.70;6.40;;;;;;;27.39;36.01;100906.15;107887;1254;69182;-67
2023/05/20 03:32:57;;;;;;;9.80;6.60;;;;;;;27.26;36.42;100906.14;108092;1254;73591;-65
2023/05/20 03:35:25;;;;;;;10.70;6.80;;;;;;;27.59;36.15;100910.35;108143;1253;63055;-66
2023/05/20 03:37:52;;;;;;;11.50;6.80;;;;;;;27.43;36.05;100904.45;108054;1253;60787;-66
2023/05/20 03:40:20;;;;;;;8.10;6.80;;;;;;;27.61;35.83;100903.67;108164;1253;75321;-67
2023/05/20 03:42:49;;;;;;;10.50;6.70;;;;;;;28.06;35.51;100902.70;108140;1257;71094;-66
2023/05/20 03:45:17;;;;;;;13.70;7.00;;;;;;;28.41;34.76;100904.80;108040;1254;74687;-65
2023/05/20 03:47:53;;;;;;;9.40;6.60;;;;;;;29.08;33.71;100902.40;108052;1254;61315;-67
2023/05/20 03:50:20;;;;;;;11.40;6.30;;;;;;;28.82;33.89;100900.73;108040;1252;62389;-66
2023/05/20 03:52:47;;;;;;;14.00;7.00;;;;;;;28.86;33.95;100901.59;108063;1252;76023;-67
2023/05/20 03:55:16;;;;;;;11.70;7.10;;;;;;;29.61;32.74;100902.86;108019;1253;72715;-67
2023/05/20 03:57:42;;;;;;;8.90;6.80;;;;;;;29.68;32.54;100903.08;108085;1253;74606;-67
2023/05/20 04:00:10;;;;;;;9.40;6.90;;;;;;;29.57;32.67;100907.98;108009;1257;62361;-67
2023/05/20 04:02:41;;;;;;;14.30;7.20;;;;;;;29.83;32.40;100908.46;108049;1252;62517;-68
2023/05/20 04:05:09;;;;;;;9.30;6.80;;;;;;;30.12;31.76;100910.85;108150;1254;73518;-67
2023/05/20 04:07:37;;;;;;;11.00;6.30;;;;;;;29.63;32.65;100918.98;108108;1259;72340;-66
2023/05/20 04:10:06;;;;;;;9.60;6.50;;;;;;;30.43;31.59;100917.46;108080;1253;74713;-66
2023/05/20 04:12:34;;;;;;;9.20;6.30;;;;;;;30.88;31.21;100921.77;108082;1253;64357;-68
2023/05/20 04:15:02;;;;;;;10.40;7.00;;;;;;;31.13;30.70;100925.95;108085;1253;62285;-66
2023/05/20 04:17:36;;;;;;;10.40;6.50;;;;;;;30.81;30.77;100922.37;108166;1253;75893;-67
2023/05/20 04:20:06;;;;;;;8.90;6.60;;;;;;;30.88;30.66;100927.25;108107;1254;70445;-70
2023/05/20 04:22:34;;;;;;;9.20;6.60;;;;;;;31.10;30.34;100921.91;108030;1254;74689;-66
2023/05/20 04:25:03;;;;;;;12.10;6.40;;;;;;;31.19;30.44;100919.08;108228;1253;60795;-67
2023/05/20 04:27:32;;;;;;;9.60;6.50;;;;;;;31.56;29.94;100920.91;108365;1251;61373;-66
2023/05/20 04:30:01;;;;;;;9.50;6.20;;;;;;;31.47;29.77;100923.43;108259;1251;75051;-66
2023/05/20 04:32:29;;;;;;;12.00;5.90;;;;;;;31.46;29.80;100921.66;108129;1251;71354;-66
2023/05/20 04:34:57;;;;;;;10.60;5.80;;;;;;;31.40;29.99;100924.93;108113;1258;74045;-66
2023/05/20 04:37:24;;;;;;;13.10;6.70;;;;;;;31.25;29.97;100925.15;108189;1256;62677;-67
2023/05/20 04:39:51;;;;;;;10.50;6.60;;;;;;;31.30;29.58;100928.77;108276;1251;62457;-68
2023/05/20 04:42:20;;;;;;;10.60;6.20;;;;;;;31.47;29.31;100935.61;108246;1251;75991;-67
2023/05/20 04:44:47;;;;;;;9.80;6.20;;;;;;;31.66;28.94;100935.61;108221;1251;71508;-65
2023/05/20 04:47:14;;;;;;;13.90;6.70;;;;;;;32.07;28.41;100934.16;108187;1251;74968;-66
2023/05/20 04:49:41;;;;;;;8.60;5.80;;;;;;;32.17;28.18;100936.25;108393;1251;62344;-67
2023/05/20 04:52:08;;;;;;;10.20;6.00;;;;;;;32.23;27.91;100936.28;108276;1251;61874;-68
2023/05/20 04:54:39;;;;;;;9.50;5.70;;;;;;;32.25;27.64;100935.39;108362;1256;76028;-67
2023/05/20 04:57:06;;;;;;;9.30;5.40;;;;;;;32.17;27.86;100935.23;108275;1251;68967;-67
2023/05/20 04:59:33;;;;;;;10.30;6.10;;;;;;;32.30;27.71;100931.88;108170;1251;74248;-66
2023/05/20 05:02:01;;;;;;;15.70;5.80;;;;;;;32.23;27.63;100933.07;108205;1251;61656;-64
2023/05/20 05:04:28;;;;;;;6.80;5.40;;;;;;;32.24;27.64;100929.45;108286;1251;63000;-67
2023/05/20 05:06:55;;;;;;;10.40;5.90;;;;;;;32.58;27.69;100930.39;108216;1251;74407;-67
2023/05/20 05:09:24;;;;;;;7.30;5.60;;;;;;;32.66;27.13;100930.80;108269;1251;72391;-67
2023/05/20 05:11:51;;;;;;;6.80;5.70;;;;;;;32.74;26.91;100929.27;108283;1253;72809;-70
2023/05/20 05:14:19;;;;;;;10.90;5.30;;;;;;;33.14;27.05;100929.41;108331;1251;60566;-68
2023/05/20 05:16:49;;;;;;;9.00;6.00;;;;;;;33.52;26.34;100935.15;108254;1251;60530;-68
2023/05/20 05:19:19;;;;;;;10.40;5.50;;;;;;;33.69;26.17;100927.63;108200;1250;75187;-67
2023/05/20 05:21:47;;;;;;;14.70;6.20;;;;;;;33.66;26.02;100932.16;108294;1251;70587;-68
2023/05/20 05:24:13;;;;;;;7.80;5.50;;;;;;;33.25;26.14;100935.52;108217;1251;73500;-67
2023/05/20 05:26:40;;;;;;;9.00;5.80;;;;;;;32.93;26.41;100938.29;108189;1253;61711;-66
2023/05/20 05:29:08;;;;;;;7.40;5.40;;;;;;;32.90;26.49;100936.40;108111;1253;62242;-67
2023/05/20 05:31:37;;;;;;;10.00;5.50;;;;;;;32.94;26.55;100937.23;108161;1253;73798;-67
2023/05/20 05:34:06;;;;;;;9.60;5.80;;;;;;;33.11;26.32;100940.17;108173;1254;71929;-68
2023/05/20 05:36:38;;;;;;;7.60;5.50;;;;;;;33.01;26.19;100941.75;108132;1256;74091;-68
2023/05/20 05:39:06;;;;;;;8.30;5.20;;;;;;;33.05;26.36;100943.70;108203;1253;61357;-67
2023/05/20 05:41:33;;;;;;;7.20;4.70;;;;;;;32.92;26.40;100941.10;108163;1252;60923;-67
2023/05/20 05:44:00;;;;;;;8.80;5.20;;;;;;;33.01;26.23;100943.30;108145;1252;73686;-68
2023/05/20 05:46:27;;;;;;;15.30;5.20;;;;;;;33.33;25.93;100942.54;108150;1254;71908;-67
2023/05/20 05:48:54;;;;;;;8.80;5.80;;;;;;;33.45;25.72;100954.60;108184;1254;75029;-67
2023/05/20 05:51:23;;;;;;;10.60;5.20;;;;;;;33.52;25.43;100953.21;108127;1253;59730;-68
2023/05/20 05:53:51;;;;;;;8.30;5.80;;;;;;;33.76;25.23;100953.48;108219;1252;61004;-67
2023/05/20 05:56:18;;;;;;;10.10;5.20;;;;;;;33.92;24.79;100949.03;108073;1254;73501;-68
2023/05/20 05:58:47;;;;;;;10.80;5.40;;;;;;;34.20;24.27;100952.38;108154;1254;70553;-66
2023/05/20 06:01:14;;;;;;;11.90;4.70;;;;;;;34.01;24.33;100951.18;108142;1257;72818;-68
2023/05/20 06:03:41;;;;;;;8.50;4.60;;;;;;;33.93;24.48;100947.24;108130;1256;61418;-68
2023/05/20 06:06:08;;;;;;;9.70;5.40;;;;;;;33.84;24.84;100945.52;108245;1254;60061;-66
2023/05/20 06:08:35;;;;;;;7.50;5.20;;;;;;;34.16;24.96;100944.63;108071;1251;76510;-67
2023/05/20 06:11:02;;;;;;;11.40;4.70;;;;;;;34.72;24.10;100941.90;108220;1251;63797;-68
2023/05/20 06:13:29;;;;;;;9.40;5.30;;;;;;;35.32;23.52;100943.02;108291;1251;65940;-68
2023/05/20 06:15:57;;;;;;;6.10;4.20;;;;;;;35.48;23.24;100945.76;108237;1251;60437;-69
2023/05/20 06:18:24;;;;;;;7.10;5.10;;;;;;;35.50;23.09;100944.01;108114;1253;60737;-68
2023/05/20 06:20:58;;;;;;;12.70;4.70;;;;;;;35.23;23.42;100941.88;108169;1253;67193;-67
2023/05/20 06:23:25;;;;;;;14.70;4.90;;;;;;;35.59;23.20;100936.23;108199;1253;63283;-68
2023/05/20 06:25:58;;;;;;;10.50;4.50;;;;;;;36.08;22.57;100935.45;108127;1254;64946;-69
2023/05/20 06:28:26;;;;;;;10.30;4.90;;;;;;;36.54;21.85;100935.49;108061;1257;60223;-68
2023/05/20 06:30:56;;;;;;;8.30;4.60;;;;;;;36.67;21.72;100929.89;108174;1257;60292;-68
2023/05/20 06:36:08;;;;;;;15.00;5.20;;;;;;;33.76;24.41;100944.54;104785;1291;603506;-69
2023/05/20 06:38:34;;;;;;;8.90;4.30;;;;;;;35.40;22.11;100944.67;107320;1266;59122;-69
2023/05/20 06:41:02;;;;;;;12.00;5.10;;;;;;;35.37;21.77;100942.78;107353;1266;59245;-68
2023/05/20 06:43:31;;;;;;;13.60;4.70;;;;;;;35.42;21.95;100942.09;107364;1266;64513;-68
2023/05/20 06:46:08;;;;;;;9.10;4.70;;;;;;;35.43;21.77;100935.79;107338;1269;61645;-68
2023/05/20 06:48:44;;;;;;;5.90;4.30;;;;;;;35.51;21.70;100940.36;107240;1265;284695;-68
2023/05/20 06:51:11;;;;;;;10.60;5.60;;;;;;;35.40;21.83;100938.97;107477;1267;59113;-68
2023/05/20 06:53:38;;;;;;;11.80;4.50;;;;;;;35.55;21.92;100936.25;107448;1263;59241;-67
2023/05/20 06:56:05;;;;;;;8.80;4.60;;;;;;;35.86;21.61;100927.08;108200;1254;63557;-67
2023/05/20 06:58:32;;;;;;;11.90;4.20;;;;;;;36.12;21.12;100924.63;108213;1256;62730;-68
2023/05/20 07:00:59;;;;;;;10.30;4.90;;;;;;;36.52;20.87;100928.59;108293;1255;64921;-69
2023/05/20 07:03:26;;;;;;;16.20;4.80;;;;;;;36.74;20.24;100933.02;108333;1254;59535;-68
2023/05/20 07:05:53;;;;;;;14.00;4.40;;;;;;;36.36;20.58;100933.94;108196;1252;59557;-69
2023/05/20 07:08:22;;;;;;;9.50;4.50;;;;;;;36.41;20.41;100936.69;108311;1254;63196;-70
2023/05/20 07:10:48;;;;;;;8.30;4.50;;;;;;;36.57;20.25;100935.63;108079;1255;61635;-68
2023/05/20 07:13:22;;;;;;;9.90;4.10;;;;;;;36.90;19.97;100940.30;108251;1255;64702;-69
2023/05/20 07:15:50;;;;;;;7.80;4.60;;;;;;;37.13;19.77;100938.96;108257;1254;59554;-69
2023/05/20 07:18:17;;;;;;;8.30;4.50;;;;;;;37.22;19.71;100935.66;108335;1255;59117;-69
2023/05/20 07:20:49;;;;;;;8.80;4.40;;;;;;;37.21;19.65;100938.41;108153;1254;65374;-69
2023/05/20 07:23:39;;;;;;;6.80;3.80;;;;;;;37.26;19.54;100936.25;107965;1263;62475;-68
2023/05/20 07:26:06;;;;;;;8.40;4.20;;;;;;;37.27;19.14;100936.54;108084;1254;64729;-69
2023/05/20 07:28:35;;;;;;;6.40;3.50;;;;;;;37.16;19.09;100927.60;108202;1256;59818;-69
2023/05/20 07:31:03;;;;;;;11.50;4.30;;;;;;;37.16;18.86;100935.33;108260;1254;59638;-69
2023/05/20 07:33:32;;;;;;;12.80;4.20;;;;;;;37.31;18.84;100936.79;108190;1253;65314;-67
2023/05/20 07:35:59;;;;;;;13.00;4.30;;;;;;;37.37;18.68;100934.75;108112;1255;61737;-68
2023/05/20 07:38:26;;;;;;;14.70;4.70;;;;;;;37.22;18.83;100936.80;108060;1258;63736;-69
2023/05/20 07:40:59;;;;;;;16.00;4.50;;;;;;;37.01;19.00;100940.20;108203;1252;59165;-70
2023/05/20 07:43:28;;;;;;;16.80;4.20;;;;;;;36.84;18.94;100938.52;108150;1254;59502;-69
2023/05/20 07:45:55;;;;;;;12.10;4.00;;;;;;;37.01;18.33;100941.14;108285;1254;73976;-70
2023/05/20 07:48:22;;;;;;;13.40;3.90;;;;;;;37.27;18.35;100942.80;108159;1254;60647;-69
2023/05/20 07:50:49;;;;;;;7.70;4.10;;;;;;;37.45;18.24;100941.34;108197;1256;64966;-69
2023/05/20 07:53:17;;;;;;;10.00;3.70;;;;;;;37.44;18.07;100941.30;108161;1254;59490;-69
2023/05/20 07:55:44;;;;;;;4.00;3.20;;;;;;;37.09;18.16;100937.90;108056;1255;59665;-68
2023/05/20 07:58:11;;;;;;;4.60;3.30;;;;;;;37.31;18.26;100933.25;108163;1254;63215;-69
2023/05/20 08:00:39;;;;;;;6.70;3.10;;;;;;;37.71;17.81;100934.90;108066;1254;62604;-70
2023/05/20 08:03:06;;;;;;;8.00;3.30;;;;;;;37.79;17.57;100934.70;108064;1254;64782;-69
2023/05/20 08:05:45;;;;;;;11.80;3.60;;;;;;;37.72;17.28;100931.02;108116;1254;60803;-69
2023/05/20 08:08:12;;;;;;;13.90;3.70;;;;;;;37.60;17.34;100928.94;107928;1254;59505;-69
2023/05/20 08:10:47;;;;;;;13.20;4.10;;;;;;;37.77;17.47;100933.02;107976;1254;65398;-69
2023/05/20 08:13:14;;;;;;;10.00;3.60;;;;;;;37.37;17.34;100935.22;108078;1254;62665;-69
2023/05/20 08:15:41;;;;;;;7.10;3.30;;;;;;;37.43;17.87;100931.53;107925;1254;64869;-69
2023/05/20 08:18:08;;;;;;;8.80;3.70;;;;;;;37.88;17.63;100930.70;108020;1254;59676;-70
2023/05/20 08:20:35;;;;;;;9.40;3.20;;;;;;;38.22;17.20;100929.21;108143;1252;59648;-70
2023/05/20 08:23:02;;;;;;;8.60;2.80;;;;;;;38.62;16.86;100925.30;108031;1254;65422;-70
2023/05/20 08:25:29;;;;;;;9.50;3.00;;;;;;;38.60;16.52;100926.13;108015;1259;62645;-70
2023/05/20 08:27:56;;;;;;;9.90;3.10;;;;;;;38.36;16.27;100930.87;108006;1254;65049;-70
2023/05/20 08:30:24;;;;;;;7.80;3.00;;;;;;;38.50;16.32;100925.75;107971;1255;59664;-71
2023/05/20 08:32:50;;;;;;;7.80;2.70;;;;;;;38.31;16.15;100926.98;108050;1254;59533;-71
2023/05/20 08:35:18;;;;;;;16.50;2.90;;;;;;;38.33;16.18;100928.10;108077;1254;64494;-69
2023/05/20 08:37:47;;;;;;;7.90;2.70;;;;;;;38.63;15.68;100924.15;108106;1254;62427;-69
2023/05/20 08:40:14;;;;;;;8.70;2.90;;;;;;;38.81;15.51;100917.16;107882;1254;65154;-69
2023/05/20 08:42:42;;;;;;;12.00;2.90;;;;;;;39.12;15.43;100918.42;108149;1254;59507;-71
2023/05/20 08:45:10;;;;;;;8.30;2.80;;;;;;;39.37;15.00;100919.46;107936;1254;59587;-71
2023/05/20 08:47:39;;;;;;;7.30;3.00;;;;;;;39.50;14.87;100916.17;107881;1260;64407;-71
2023/05/20 08:50:07;;;;;;;18.50;3.10;;;;;;;39.49;14.90;100913.63;108040;1254;62374;-71
2023/05/20 08:52:34;;;;;;;8.60;3.00;;;;;;;39.74;15.21;100913.43;108111;1254;65222;-72
2023/05/20 08:55:00;;;;;;;11.40;3.10;;;;;;;39.77;15.03;100915.14;107911;1253;59596;-70
2023/05/20 08:57:27;;;;;;;9.40;3.10;;;;;;;39.36;14.91;100913.08;108057;1254;59206;-70
2023/05/20 08:59:56;;;;;;;9.90;3.00;;;;;;;39.20;15.44;100910.44;107889;1254;65347;-72
2023/05/20 09:02:22;;;;;;;11.90;3.00;;;;;;;39.31;15.43;100909.52;108091;1254;62677;-70
2023/05/20 09:04:49;;;;;;;12.00;3.40;;;;;;;39.97;14.96;100912.42;108107;1254;64995;-71
2023/05/20 09:07:27;;;;;;;6.90;2.30;;;;;;;39.95;14.26;100915.52;108042;1254;59545;-70
2023/05/20 09:09:54;;;;;;;10.40;2.80;;;;;;;39.68;14.33;100917.65;108070;1254;59724;-69
2023/05/20 09:12:22;;;;;;;5.30;2.60;;;;;;;39.28;14.70;100916.67;108007;1254;65454;-67
2023/05/20 09:14:50;;;;;;;6.70;2.70;;;;;;;39.05;14.84;100917.42;108065;1254;62419;-70
2023/05/20 09:17:17;;;;;;;6.70;2.30;;;;;;;38.70;15.18;100913.70;108019;1254;63717;-70
2023/05/20 09:19:44;;;;;;;5.90;2.50;;;;;;;38.47;15.27;100916.63;107979;1254;59403;-72
2023/05/20 09:22:11;;;;;;;9.70;2.90;;;;;;;38.47;15.18;100916.97;107878;1254;60998;-72
2023/05/20 09:24:37;;;;;;;5.80;2.30;;;;;;;38.53;15.36;100918.79;108076;1257;65165;-71
2023/05/20 09:27:04;;;;;;;8.90;3.10;;;;;;;38.80;15.38;100915.73;108206;1253;63050;-71
2023/05/20 09:29:32;;;;;;;4.40;2.50;;;;;;;38.82;14.77;100916.23;108125;1253;64044;-71
2023/05/20 09:32:00;;;;;;;5.20;2.80;;;;;;;38.75;14.79;100913.86;108118;1254;59218;-69
2023/05/20 09:34:28;;;;;;;8.90;2.80;;;;;;;38.48;15.11;100917.00;108197;1254;59543;-70
2023/05/20 09:36:54;;;;;;;7.60;2.80;;;;;;;38.31;15.49;100918.63;108078;1253;65092;-70
2023/05/20 09:39:24;;;;;;;4.40;2.60;;;;;;;38.21;15.67;100909.27;108038;1253;61503;-68
2023/05/20 09:41:55;;;;;;;11.10;3.00;;;;;;;38.06;15.43;100912.78;108110;1253;65194;-69
2023/05/20 09:44:22;;;;;;;11.70;2.80;;;;;;;37.89;15.11;100912.80;108085;1254;59388;-68
2023/05/20 09:46:49;;;;;;;7.60;2.50;;;;;;;37.67;15.87;100915.17;108110;1253;59099;-69
2023/05/20 09:49:16;;;;;;;4.40;2.20;;;;;;;37.90;15.94;100916.24;108123;1254;65439;-68
2023/05/20 09:51:43;;;;;;;17.70;2.90;;;;;;;38.24;15.48;100916.64;107920;1260;62519;-68
2023/05/20 09:54:11;;;;;;;9.40;3.20;;;;;;;38.48;14.94;100907.98;107992;1254;65164;-69
2023/05/20 09:56:39;;;;;;;8.60;2.70;;;;;;;38.30;14.89;100908.98;108118;1254;59418;-69
2023/05/20 09:59:06;;;;;;;4.10;2.80;;;;;;;37.70;15.57;100913.02;108170;1253;59593;-69
2023/05/20 10:01:33;;;;;;;8.50;2.80;;;;;;;37.51;15.93;100912.45;108163;1254;65568;-70
2023/05/20 10:04:00;;;;;;;15.60;3.20;;;;;;;37.62;16.22;100917.13;108084;1254;62450;-69
2023/05/20 10:06:57;;;;;;;4.40;2.50;;;;;;;37.95;15.42;100919.64;108082;1254;64700;-69
2023/05/20 10:09:55;;;;;;;7.60;2.50;;;;;;;37.82;15.46;100913.82;108178;1257;59092;-69
2023/05/20 10:12:48;;;;;;;10.40;2.50;;;;;;;38.14;15.44;100914.61;108114;1253;59674;-69
2023/05/20 10:15:26;;;;;;;15.50;2.80;;;;;;;38.37;15.18;100903.61;108110;1253;65278;-71
2023/05/20 10:18:43;;;;;;;11.40;2.60;;;;;;;38.07;15.15;100909.40;108056;1253;62684;-69
2023/05/20 10:21:15;;;;;;;21.20;3.40;;;;;;;38.09;15.17;100900.13;108040;1253;64724;-71
2023/05/20 10:23:42;;;;;;;8.90;2.60;;;;;;;38.39;14.98;100902.42;108140;1254;59770;-69
2023/05/20 10:26:09;;;;;;;5.50;2.60;;;;;;;38.56;15.05;100900.02;108093;1253;59570;-69
2023/05/20 10:28:37;;;;;;;7.70;2.40;;;;;;;38.68;14.99;100893.98;108079;1254;74441;-71
2023/05/20 10:31:17;;;;;;;6.40;2.40;;;;;;;38.86;14.91;100893.99;108193;1253;62474;-70
2023/05/20 10:33:44;;;;;;;;;;;;;;;38.55;15.21;100893.46;108038;1259;65029;-71
2023/05/20 10:36:25;;;;;;;7.20;2.80;;;;;;;38.70;15.39;100886.55;108138;1254;59718;-72
2023/05/20 10:38:54;;;;;;;5.20;2.30;;;;;;;39.34;14.89;100889.23;108165;1254;59648;-71
2023/05/20 10:41:23;;;;;;;7.30;2.60;;;;;;;39.30;15.05;100885.71;108148;1253;65151;-68
2023/05/20 10:44:01;;;;;;;7.40;2.30;;;;;;;39.54;14.79;100888.01;108190;1253;61697;-69
2023/05/20 10:46:29;;;;;;;11.00;2.70;;;;;;;39.70;14.65;100884.98;108141;1253;64060;-69
2023/05/20 10:49:20;;;;;;;13.20;2.70;;;;;;;39.87;14.18;100879.51;108049;1253;60585;-70
2023/05/20 10:51:54;;;;;;;11.40;3.00;;;;;;;38.92;14.50;100882.34;108092;1253;60449;-68
2023/05/20 10:54:21;;;;;;;6.00;2.70;;;;;;;38.63;14.97;100889.72;108090;1253;66240;-68
2023/05/20 10:56:52;;;;;;;9.20;2.80;;;;;;;38.93;14.79;100884.08;108085;1254;61882;-68
2023/05/20 10:59:20;;;;;;;6.40;2.50;;;;;;;39.58;14.59;100880.36;108108;1253;65006;-68
2023/05/20 11:01:47;;;;;;;7.90;2.90;;;;;;;39.89;14.29;100886.29;108044;1253;60754;-69
2023/05/20 11:08:21;;;;;;;8.10;2.80;;;;;;;39.23;14.58;100876.41;108097;1254;63790;-71
2023/05/20 11:10:56;;;;;;;8.20;2.50;;;;;;;39.28;14.75;100877.00;108062;1254;60526;-69
2023/05/20 11:21:43;;;;;;;9.90;2.60;;;;;;;38.51;15.01;100878.84;108134;1253;60403;-70
2023/05/20 11:24:09;;;;;;;8.40;2.80;;;;;;;38.71;15.11;100877.43;108165;1254;65153;-67
2023/05/20 11:26:36;;;;;;;6.50;2.90;;;;;;;38.90;14.91;100879.64;108157;1254;62377;-69
2023/05/20 11:29:03;;;;;;;5.80;3.30;;;;;;;39.18;14.69;100881.00;108047;1254;64012;-71
2023/05/20 11:31:31;;;;;;;9.20;2.80;;;;;;;39.50;14.19;100879.79;108087;1253;59557;-71
2023/05/20 11:34:00;;;;;;;5.90;2.40;;;;;;;39.33;14.14;100881.91;108129;1253;60341;-71
2023/05/20 11:36:27;;;;;;;5.10;2.70;;;;;;;38.76;14.51;100873.66;108114;1253;65041;-72